sensor_id;sensor_type;location;lat;lon;timestamp;pressure;altitude;pressure_sealevel;temperature;humidity
55490;BME280;44029;52.956;4.772;2023-12-20T00:00:53;101438.41;;;13.80;100.00
55490;BME280;44029;52.956;4.772;2023-12-20T00:03:18;101435.78;;;14.17;100.00
55490;BME280;44029;52.956;4.772;2023-12-20T00:05:43;101434.78;;;14.01;100.00
55490;BME280;44029;52.956;4.772;2023-12-20T00:08:09;101429.13;;;14.13;100.00
55490;BME280;44029;52.956;4.772;2023-12-20T00:10:34;101429.94;;;13.86;100.00
55490;BME280;44029;52.956;4.772;2023-12-20T00:12:59;101446.81;;;13.95;100.00
55490;BME280;44029;52.956;4.772;2023-12-20T00:15:25;101447.47;;;13.80;100.00
55490;BME280;44029;52.956;4.772;2023-12-20T00:17:50;101449.88;;;13.71;100.00
55490;BME280;44029;52.956;4.772;2023-12-20T00:20:15;101436.31;;;14.14;100.00
55490;BME280;44029;52.956;4.772;2023-12-20T00:22:41;101431.28;;;13.84;100.00
55490;BME280;44029;52.956;4.772;2023-12-20T00:25:06;101443.97;;;14.12;100.00
55490;BME280;44029;52.956;4.772;2023-12-20T00:27:32;101460.50;;;13.85;100.00
55490;BME280;44029;52.956;4.772;2023-12-20T00:29:57;101454.28;;;13.72;100.00
55490;BME280;44029;52.956;4.772;2023-12-20T00:32:22;101437.00;;;13.77;100.00
55490;BME280;44029;52.956;4.772;2023-12-20T00:34:47;101439.22;;;13.58;100.00
55490;BME280;44029;52.956;4.772;2023-12-20T00:37:13;101436.16;;;13.77;100.00
55490;BME280;44029;52.956;4.772;2023-12-20T00:39:38;101432.44;;;14.15;100.00
55490;BME280;44029;52.956;4.772;2023-12-20T00:42:04;101426.31;;;14.35;100.00
55490;BME280;44029;52.956;4.772;2023-12-20T00:44:29;101427.94;;;13.82;100.00
55490;BME280;44029;52.956;4.772;2023-12-20T00:46:54;101417.22;;;14.07;100.00
55490;BME280;44029;52.956;4.772;2023-12-20T00:49:20;101416.53;;;13.95;100.00
55490;BME280;44029;52.956;4.772;2023-12-20T00:51:45;101427.94;;;13.82;100.00
55490;BME280;44029;52.956;4.772;2023-12-20T00:54:12;101424.94;;;13.61;100.00
55490;BME280;44029;52.956;4.772;2023-12-20T00:56:37;101415.09;;;13.65;100.00
55490;BME280;44029;52.956;4.772;2023-12-20T00:59:02;101422.66;;;13.31;100.00
55490;BME280;44029;52.956;4.772;2023-12-20T01:01:27;101411.50;;;13.65;100.00
55490;BME280;44029;52.956;4.772;2023-12-20T01:03:53;101417.09;;;13.48;100.00
55490;BME280;44029;52.956;4.772;2023-12-20T01:06:18;101420.22;;;13.57;100.00
55490;BME280;44029;52.956;4.772;2023-12-20T01:08:44;101415.16;;;13.48;100.00
55490;BME280;44029;52.956;4.772;2023-12-20T01:11:10;101420.25;;;13.40;100.00
55490;BME280;44029;52.956;4.772;2023-12-20T01:13:35;101415.63;;;13.89;100.00
55490;BME280;44029;52.956;4.772;2023-12-20T01:16:00;101412.22;;;13.77;100.00
55490;BME280;44029;52.956;4.772;2023-12-20T01:18:26;101416.75;;;13.44;100.00
55490;BME280;44029;52.956;4.772;2023-12-20T01:20:51;101419.59;;;13.49;100.00
55490;BME280;44029;52.956;4.772;2023-12-20T01:23:16;101415.97;;;13.71;100.00
55490;BME280;44029;52.956;4.772;2023-12-20T01:25:42;101423.25;;;13.82;100.00
55490;BME280;44029;52.956;4.772;2023-12-20T01:28:08;101407.94;;;13.42;100.00
55490;BME280;44029;52.956;4.772;2023-12-20T01:30:33;101401.88;;;13.67;100.00
55490;BME280;44029;52.956;4.772;2023-12-20T01:33:00;101412.47;;;13.31;100.00
55490;BME280;44029;52.956;4.772;2023-12-20T01:35:25;101408.75;;;12.19;100.00
55490;BME280;44029;52.956;4.772;2023-12-20T01:37:51;101402.88;;;12.61;100.00
55490;BME280;44029;52.956;4.772;2023-12-20T01:40:16;101411.06;;;12.95;100.00
55490;BME280;44029;52.956;4.772;2023-12-20T01:42:41;101419.69;;;12.65;100.00
55490;BME280;44029;52.956;4.772;2023-12-20T01:45:07;101417.09;;;12.58;100.00
55490;BME280;44029;52.956;4.772;2023-12-20T01:47:33;101399.78;;;12.74;100.00
55490;BME280;44029;52.956;4.772;2023-12-20T01:49:58;101413.28;;;12.76;100.00
55490;BME280;44029;52.956;4.772;2023-12-20T01:52:25;101411.84;;;12.90;100.00
55490;BME280;44029;52.956;4.772;2023-12-20T01:54:51;101400.84;;;12.23;100.00
55490;BME280;44029;52.956;4.772;2023-12-20T01:57:16;101408.19;;;12.51;100.00
55490;BME280;44029;52.956;4.772;2023-12-20T01:59:42;101398.34;;;12.38;100.00
55490;BME280;44029;52.956;4.772;2023-12-20T02:02:07;101399.38;;;12.83;100.00
55490;BME280;44029;52.956;4.772;2023-12-20T02:04:33;101406.00;;;13.04;100.00
55490;BME280;44029;52.956;4.772;2023-12-20T02:06:59;101396.19;;;12.74;100.00
55490;BME280;44029;52.956;4.772;2023-12-20T02:09:24;101389.44;;;12.82;100.00
55490;BME280;44029;52.956;4.772;2023-12-20T02:11:49;101393.22;;;12.59;100.00
55490;BME280;44029;52.956;4.772;2023-12-20T02:14:15;101399.75;;;12.91;100.00
55490;BME280;44029;52.956;4.772;2023-12-20T02:16:40;101395.69;;;12.94;100.00
55490;BME280;44029;52.956;4.772;2023-12-20T02:19:13;101389.34;;;13.54;100.00
55490;BME280;44029;52.956;4.772;2023-12-20T02:21:39;101378.78;;;12.85;100.00
55490;BME280;44029;52.956;4.772;2023-12-20T02:24:04;101383.34;;;12.96;100.00
55490;BME280;44029;52.956;4.772;2023-12-20T02:26:32;101382.63;;;13.06;100.00
55490;BME280;44029;52.956;4.772;2023-12-20T02:28:57;101377.19;;;12.89;100.00
55490;BME280;44029;52.956;4.772;2023-12-20T02:31:23;101380.50;;;12.91;100.00
55490;BME280;44029;52.956;4.772;2023-12-20T02:33:49;101376.38;;;12.72;100.00
55490;BME280;44029;52.956;4.772;2023-12-20T02:36:14;101367.88;;;12.73;100.00
55490;BME280;44029;52.956;4.772;2023-12-20T02:38:40;101371.38;;;12.35;100.00
55490;BME280;44029;52.956;4.772;2023-12-20T02:41:05;101369.13;;;12.83;100.00
55490;BME280;44029;52.956;4.772;2023-12-20T02:43:30;101367.88;;;12.73;100.00
55490;BME280;44029;52.956;4.772;2023-12-20T02:45:55;101364.00;;;12.91;100.00
55490;BME280;44029;52.956;4.772;2023-12-20T02:48:21;101364.06;;;12.41;100.00
55490;BME280;44029;52.956;4.772;2023-12-20T02:50:47;101360.22;;;12.75;100.00
55490;BME280;44029;52.956;4.772;2023-12-20T02:53:13;101369.41;;;13.03;100.00
55490;BME280;44029;52.956;4.772;2023-12-20T02:55:38;101356.47;;;13.43;100.00
55490;BME280;44029;52.956;4.772;2023-12-20T02:58:03;101370.72;;;13.01;100.00
55490;BME280;44029;52.956;4.772;2023-12-20T03:00:29;101367.25;;;13.05;100.00
55490;BME280;44029;52.956;4.772;2023-12-20T03:02:54;101362.91;;;12.53;100.00
55490;BME280;44029;52.956;4.772;2023-12-20T03:05:19;101361.97;;;12.65;100.00
55490;BME280;44029;52.956;4.772;2023-12-20T03:07:45;101369.72;;;12.51;100.00
55490;BME280;44029;52.956;4.772;2023-12-20T03:10:11;101373.38;;;12.56;100.00
55490;BME280;44029;52.956;4.772;2023-12-20T03:12:36;101370.53;;;12.68;100.00
55490;BME280;44029;52.956;4.772;2023-12-20T03:15:02;101358.03;;;12.77;100.00
55490;BME280;44029;52.956;4.772;2023-12-20T03:17:27;101361.66;;;13.00;100.00
55490;BME280;44029;52.956;4.772;2023-12-20T03:19:52;101350.00;;;12.93;100.00
55490;BME280;44029;52.956;4.772;2023-12-20T03:22:18;101358.28;;;12.76;100.00
55490;BME280;44029;52.956;4.772;2023-12-20T03:24:43;101363.38;;;13.06;100.00
55490;BME280;44029;52.956;4.772;2023-12-20T03:27:08;101366.00;;;12.40;100.00
55490;BME280;44029;52.956;4.772;2023-12-20T03:29:33;101363.78;;;13.15;100.00
55490;BME280;44029;52.956;4.772;2023-12-20T03:31:59;101366.13;;;12.67;100.00
55490;BME280;44029;52.956;4.772;2023-12-20T03:34:24;101351.63;;;12.38;100.00
55490;BME280;44029;52.956;4.772;2023-12-20T03:36:50;101346.91;;;12.50;100.00
55490;BME280;44029;52.956;4.772;2023-12-20T03:39:15;101348.25;;;12.31;100.00
55490;BME280;44029;52.956;4.772;2023-12-20T03:41:40;101340.06;;;12.36;100.00
55490;BME280;44029;52.956;4.772;2023-12-20T03:44:05;101330.50;;;12.55;100.00
55490;BME280;44029;52.956;4.772;2023-12-20T03:46:31;101333.00;;;12.96;100.00
55490;BME280;44029;52.956;4.772;2023-12-20T03:48:56;101328.25;;;12.91;100.00
55490;BME280;44029;52.956;4.772;2023-12-20T03:51:22;101307.47;;;13.23;100.00
55490;BME280;44029;52.956;4.772;2023-12-20T03:53:47;101318.69;;;12.94;100.00
55490;BME280;44029;52.956;4.772;2023-12-20T03:56:13;101296.09;;;12.92;100.00
55490;BME280;44029;52.956;4.772;2023-12-20T03:58:38;101295.31;;;12.96;100.00
55490;BME280;44029;52.956;4.772;2023-12-20T04:01:09;101292.00;;;12.94;100.00
55490;BME280;44029;52.956;4.772;2023-12-20T04:03:35;101295.22;;;12.69;100.00
55490;BME280;44029;52.956;4.772;2023-12-20T04:06:00;101301.28;;;12.71;100.00
55490;BME280;44029;52.956;4.772;2023-12-20T04:08:25;101293.81;;;12.67;100.00
55490;BME280;44029;52.956;4.772;2023-12-20T04:10:51;101284.72;;;12.83;100.00
55490;BME280;44029;52.956;4.772;2023-12-20T04:13:16;101289.56;;;12.76;100.00
55490;BME280;44029;52.956;4.772;2023-12-20T04:15:41;101296.66;;;12.72;100.00
55490;BME280;44029;52.956;4.772;2023-12-20T04:18:06;101285.84;;;12.87;100.00
55490;BME280;44029;52.956;4.772;2023-12-20T04:20:32;101296.91;;;12.70;100.00
55490;BME280;44029;52.956;4.772;2023-12-20T04:22:57;101299.31;;;12.67;100.00
55490;BME280;44029;52.956;4.772;2023-12-20T04:25:22;101290.13;;;12.22;100.00
55490;BME280;44029;52.956;4.772;2023-12-20T04:27:47;101287.53;;;12.49;100.00
55490;BME280;44029;52.956;4.772;2023-12-20T04:30:13;101277.41;;;12.33;100.00
55490;BME280;44029;52.956;4.772;2023-12-20T04:32:38;101275.44;;;12.50;100.00
55490;BME280;44029;52.956;4.772;2023-12-20T04:35:04;101281.22;;;12.71;100.00
55490;BME280;44029;52.956;4.772;2023-12-20T04:37:29;101280.97;;;12.72;100.00
55490;BME280;44029;52.956;4.772;2023-12-20T04:39:55;101291.19;;;12.38;100.00
55490;BME280;44029;52.956;4.772;2023-12-20T04:42:20;101291.66;;;12.69;100.00
55490;BME280;44029;52.956;4.772;2023-12-20T04:44:45;101286.31;;;12.62;100.00
55490;BME280;44029;52.956;4.772;2023-12-20T04:47:11;101282.94;;;12.38;100.00
55490;BME280;44029;52.956;4.772;2023-12-20T04:49:36;101287.53;;;12.49;100.00
55490;BME280;44029;52.956;4.772;2023-12-20T04:52:01;101277.09;;;12.90;100.00
55490;BME280;44029;52.956;4.772;2023-12-20T04:54:26;101282.75;;;12.62;100.00
55490;BME280;44029;52.956;4.772;2023-12-20T04:56:52;101284.41;;;13.02;100.00
55490;BME280;44029;52.956;4.772;2023-12-20T04:59:17;101282.69;;;12.95;100.00
55490;BME280;44029;52.956;4.772;2023-12-20T05:01:42;101287.31;;;12.73;100.00
55490;BME280;44029;52.956;4.772;2023-12-20T05:04:08;101270.00;;;12.94;100.00
55490;BME280;44029;52.956;4.772;2023-12-20T05:06:33;101267.06;;;12.79;100.00
55490;BME280;44029;52.956;4.772;2023-12-20T05:08:58;101288.09;;;12.68;100.00
55490;BME280;44029;52.956;4.772;2023-12-20T05:11:24;101282.09;;;12.54;100.00
55490;BME280;44029;52.956;4.772;2023-12-20T05:13:49;101271.91;;;12.72;100.00
55490;BME280;44029;52.956;4.772;2023-12-20T05:16:14;101278.06;;;12.79;100.00
55490;BME280;44029;52.956;4.772;2023-12-20T05:18:42;101266.44;;;12.94;100.00
55490;BME280;44029;52.956;4.772;2023-12-20T05:21:08;101246.41;;;12.76;100.00
55490;BME280;44029;52.956;4.772;2023-12-20T05:23:33;101246.03;;;12.68;100.00
55490;BME280;44029;52.956;4.772;2023-12-20T05:25:59;101249.38;;;12.75;100.00
55490;BME280;44029;52.956;4.772;2023-12-20T05:28:24;101267.19;;;12.50;100.00
55490;BME280;44029;52.956;4.772;2023-12-20T05:30:50;101268.19;;;12.61;100.00
55490;BME280;44029;52.956;4.772;2023-12-20T05:33:15;101259.53;;;12.52;100.00
55490;BME280;44029;52.956;4.772;2023-12-20T05:35:40;101253.50;;;12.72;100.00
55490;BME280;44029;52.956;4.772;2023-12-20T05:38:05;101256.78;;;12.52;100.00
55490;BME280;44029;52.956;4.772;2023-12-20T05:40:31;101251.41;;;12.41;100.00
55490;BME280;44029;52.956;4.772;2023-12-20T05:42:56;101249.44;;;12.19;100.00
55490;BME280;44029;52.956;4.772;2023-12-20T05:45:21;101252.47;;;12.40;100.00
55490;BME280;44029;52.956;4.772;2023-12-20T05:47:47;101243.56;;;12.32;100.00
55490;BME280;44029;52.956;4.772;2023-12-20T05:50:12;101243.00;;;12.30;100.00
55490;BME280;44029;52.956;4.772;2023-12-20T05:52:37;101242.53;;;12.16;100.00
55490;BME280;44029;52.956;4.772;2023-12-20T05:55:03;101224.91;;;12.12;100.00
55490;BME280;44029;52.956;4.772;2023-12-20T05:57:28;101239.88;;;12.22;100.00
55490;BME280;44029;52.956;4.772;2023-12-20T05:59:53;101225.75;;;11.67;100.00
55490;BME280;44029;52.956;4.772;2023-12-20T06:02:18;101243.63;;;11.98;100.00
55490;BME280;44029;52.956;4.772;2023-12-20T06:04:44;101240.09;;;12.37;100.00
55490;BME280;44029;52.956;4.772;2023-12-20T06:07:13;101244.94;;;12.91;100.00
55490;BME280;44029;52.956;4.772;2023-12-20T06:09:39;101248.78;;;11.95;100.00
55490;BME280;44029;52.956;4.772;2023-12-20T06:12:05;101250.13;;;12.48;100.00
55490;BME280;44029;52.956;4.772;2023-12-20T06:14:30;101240.41;;;12.41;100.00
55490;BME280;44029;52.956;4.772;2023-12-20T06:16:58;101243.94;;;12.19;100.00
55490;BME280;44029;52.956;4.772;2023-12-20T06:19:24;101246.13;;;12.00;100.00
55490;BME280;44029;52.956;4.772;2023-12-20T06:21:49;101251.94;;;12.60;100.00
55490;BME280;44029;52.956;4.772;2023-12-20T06:24:14;101247.56;;;12.59;100.00
55490;BME280;44029;52.956;4.772;2023-12-20T06:26:40;101244.75;;;12.75;100.00
55490;BME280;44029;52.956;4.772;2023-12-20T06:29:05;101236.69;;;12.91;100.00
55490;BME280;44029;52.956;4.772;2023-12-20T06:31:30;101236.94;;;12.67;100.00
55490;BME280;44029;52.956;4.772;2023-12-20T06:33:58;101237.63;;;12.57;100.00
55490;BME280;44029;52.956;4.772;2023-12-20T06:36:25;101244.81;;;12.59;100.00
55490;BME280;44029;52.956;4.772;2023-12-20T06:38:51;101249.34;;;12.31;100.00
55490;BME280;44029;52.956;4.772;2023-12-20T06:41:16;101247.22;;;12.55;100.00
55490;BME280;44029;52.956;4.772;2023-12-20T06:43:42;101249.03;;;12.66;100.00
55490;BME280;44029;52.956;4.772;2023-12-20T06:46:07;101249.53;;;12.85;100.00
55490;BME280;44029;52.956;4.772;2023-12-20T06:48:34;101235.97;;;12.79;100.00
55490;BME280;44029;52.956;4.772;2023-12-20T06:51:00;101246.16;;;12.78;100.00
55490;BME280;44029;52.956;4.772;2023-12-20T06:53:27;101241.78;;;12.60;100.00
55490;BME280;44029;52.956;4.772;2023-12-20T06:55:52;101227.22;;;12.82;100.00
55490;BME280;44029;52.956;4.772;2023-12-20T06:58:17;101241.16;;;12.36;100.00
55490;BME280;44029;52.956;4.772;2023-12-20T07:00:43;101224.19;;;12.39;100.00
55490;BME280;44029;52.956;4.772;2023-12-20T07:03:09;101224.38;;;12.54;100.00
55490;BME280;44029;52.956;4.772;2023-12-20T07:05:34;101239.31;;;12.42;100.00
55490;BME280;44029;52.956;4.772;2023-12-20T07:08:00;101232.09;;;12.35;100.00
55490;BME280;44029;52.956;4.772;2023-12-20T07:10:25;101228.88;;;12.61;100.00
55490;BME280;44029;52.956;4.772;2023-12-20T07:12:50;101235.56;;;12.48;100.00
55490;BME280;44029;52.956;4.772;2023-12-20T07:15:16;101238.38;;;12.31;100.00
55490;BME280;44029;52.956;4.772;2023-12-20T07:17:42;101240.44;;;12.24;100.00
55490;BME280;44029;52.956;4.772;2023-12-20T07:20:09;101234.63;;;12.59;100.00
55490;BME280;44029;52.956;4.772;2023-12-20T07:22:36;101235.94;;;12.56;100.00
55490;BME280;44029;52.956;4.772;2023-12-20T07:25:01;101263.66;;;12.33;100.00
55490;BME280;44029;52.956;4.772;2023-12-20T07:27:27;101248.69;;;12.63;100.00
55490;BME280;44029;52.956;4.772;2023-12-20T07:29:52;101254.03;;;12.52;100.00
55490;BME280;44029;52.956;4.772;2023-12-20T07:32:18;101269.91;;;12.28;100.00
55490;BME280;44029;52.956;4.772;2023-12-20T07:34:43;101269.94;;;12.50;100.00
55490;BME280;44029;52.956;4.772;2023-12-20T07:37:09;101258.28;;;13.04;100.00
55490;BME280;44029;52.956;4.772;2023-12-20T07:39:39;101249.84;;;13.11;100.00
55490;BME280;44029;52.956;4.772;2023-12-20T07:42:05;101266.69;;;13.37;100.00
55490;BME280;44029;52.956;4.772;2023-12-20T07:44:31;101269.78;;;13.45;100.00
55490;BME280;44029;52.956;4.772;2023-12-20T07:46:56;101271.94;;;12.94;100.00
55490;BME280;44029;52.956;4.772;2023-12-20T07:49:23;101286.63;;;12.27;100.00
55490;BME280;44029;52.956;4.772;2023-12-20T07:51:48;101266.28;;;13.06;100.00
55490;BME280;44029;52.956;4.772;2023-12-20T07:54:13;101279.63;;;12.75;100.00
55490;BME280;44029;52.956;4.772;2023-12-20T07:56:38;101281.53;;;12.52;100.00
55490;BME280;44029;52.956;4.772;2023-12-20T07:59:05;101277.88;;;13.08;100.00
55490;BME280;44029;52.956;4.772;2023-12-20T08:01:30;101275.13;;;13.08;100.00
55490;BME280;44029;52.956;4.772;2023-12-20T08:03:55;101279.31;;;12.93;100.00
55490;BME280;44029;52.956;4.772;2023-12-20T08:06:22;101292.06;;;13.00;100.00
55490;BME280;44029;52.956;4.772;2023-12-20T08:08:47;101276.25;;;12.90;100.00
55490;BME280;44029;52.956;4.772;2023-12-20T08:11:12;101270.50;;;12.91;100.00
55490;BME280;44029;52.956;4.772;2023-12-20T08:13:38;101263.88;;;13.31;100.00
55490;BME280;44029;52.956;4.772;2023-12-20T08:16:03;101273.06;;;12.76;100.00
55490;BME280;44029;52.956;4.772;2023-12-20T08:18:29;101269.63;;;13.08;100.00
55490;BME280;44029;52.956;4.772;2023-12-20T08:20:54;101273.50;;;12.68;100.00
55490;BME280;44029;52.956;4.772;2023-12-20T08:23:20;101276.69;;;12.60;100.00
55490;BME280;44029;52.956;4.772;2023-12-20T08:25:48;101263.94;;;12.92;100.00
55490;BME280;44029;52.956;4.772;2023-12-20T08:28:14;101284.97;;;13.04;100.00
55490;BME280;44029;52.956;4.772;2023-12-20T08:30:39;101278.63;;;13.25;100.00
55490;BME280;44029;52.956;4.772;2023-12-20T08:33:06;101289.75;;;13.58;100.00
55490;BME280;44029;52.956;4.772;2023-12-20T08:35:36;101274.88;;;13.31;100.00
55490;BME280;44029;52.956;4.772;2023-12-20T08:38:01;101276.66;;;13.43;100.00
55490;BME280;44029;52.956;4.772;2023-12-20T08:40:27;101266.53;;;13.26;100.00
55490;BME280;44029;52.956;4.772;2023-12-20T08:42:52;101282.38;;;13.14;100.00
55490;BME280;44029;52.956;4.772;2023-12-20T08:45:17;101278.25;;;13.17;100.00
55490;BME280;44029;52.956;4.772;2023-12-20T08:47:42;101276.84;;;13.14;100.00
55490;BME280;44029;52.956;4.772;2023-12-20T08:50:10;101284.88;;;13.65;100.00
55490;BME280;44029;52.956;4.772;2023-12-20T08:52:35;101271.47;;;13.46;100.00
55490;BME280;44029;52.956;4.772;2023-12-20T08:55:01;101273.72;;;13.05;100.00
55490;BME280;44029;52.956;4.772;2023-12-20T08:57:26;101264.41;;;13.56;100.00
55490;BME280;44029;52.956;4.772;2023-12-20T08:59:51;101271.94;;;13.38;100.00
55490;BME280;44029;52.956;4.772;2023-12-20T09:02:17;101273.66;;;13.44;100.00
55490;BME280;44029;52.956;4.772;2023-12-20T09:04:43;101270.50;;;13.36;100.00
55490;BME280;44029;52.956;4.772;2023-12-20T09:07:25;101269.22;;;14.03;100.00
55490;BME280;44029;52.956;4.772;2023-12-20T09:09:51;101283.84;;;13.44;100.00
55490;BME280;44029;52.956;4.772;2023-12-20T09:12:20;101274.56;;;14.15;100.00
55490;BME280;44029;52.956;4.772;2023-12-20T09:14:46;101285.47;;;13.99;100.00
55490;BME280;44029;52.956;4.772;2023-12-20T09:17:12;101283.50;;;13.67;100.00
55490;BME280;44029;52.956;4.772;2023-12-20T09:19:38;101286.16;;;13.57;100.00
55490;BME280;44029;52.956;4.772;2023-12-20T09:22:04;101288.44;;;13.92;100.00
55490;BME280;44029;52.956;4.772;2023-12-20T09:24:30;101284.41;;;14.05;100.00
55490;BME280;44029;52.956;4.772;2023-12-20T09:26:55;101292.94;;;13.77;100.00
55490;BME280;44029;52.956;4.772;2023-12-20T09:29:21;101296.28;;;13.79;100.00
55490;BME280;44029;52.956;4.772;2023-12-20T09:31:46;101298.31;;;13.88;100.00
55490;BME280;44029;52.956;4.772;2023-12-20T09:34:14;101305.84;;;13.44;100.00
55490;BME280;44029;52.956;4.772;2023-12-20T09:36:40;101302.63;;;13.30;100.00
55490;BME280;44029;52.956;4.772;2023-12-20T09:39:11;101312.13;;;13.66;100.00
55490;BME280;44029;52.956;4.772;2023-12-20T09:41:39;101308.06;;;14.01;100.00
55490;BME280;44029;52.956;4.772;2023-12-20T09:44:08;101304.78;;;14.04;100.00
55490;BME280;44029;52.956;4.772;2023-12-20T09:46:34;101305.84;;;13.98;100.00
55490;BME280;44029;52.956;4.772;2023-12-20T09:49:04;101322.94;;;14.00;100.00
55490;BME280;44029;52.956;4.772;2023-12-20T09:51:31;101317.09;;;13.97;100.00
55490;BME280;44029;52.956;4.772;2023-12-20T09:53:57;101325.63;;;14.60;100.00
55490;BME280;44029;52.956;4.772;2023-12-20T09:56:24;101324.16;;;14.15;100.00
55490;BME280;44029;52.956;4.772;2023-12-20T09:58:50;101315.28;;;14.07;100.00
55490;BME280;44029;52.956;4.772;2023-12-20T10:01:15;101323.03;;;13.83;100.00
55490;BME280;44029;52.956;4.772;2023-12-20T10:03:41;101323.47;;;14.29;100.00
55490;BME280;44029;52.956;4.772;2023-12-20T10:06:07;101320.00;;;14.12;100.00
55490;BME280;44029;52.956;4.772;2023-12-20T10:08:33;101352.56;;;13.39;100.00
55490;BME280;44029;52.956;4.772;2023-12-20T10:10:58;101349.19;;;13.81;100.00
55490;BME280;44029;52.956;4.772;2023-12-20T10:13:28;101350.09;;;13.20;100.00
55490;BME280;44029;52.956;4.772;2023-12-20T10:15:55;101351.09;;;13.53;100.00
55490;BME280;44029;52.956;4.772;2023-12-20T10:18:20;101341.38;;;12.67;100.00
55490;BME280;44029;52.956;4.772;2023-12-20T10:20:46;101342.13;;;12.80;100.00
55490;BME280;44029;52.956;4.772;2023-12-20T10:23:11;101337.44;;;12.80;100.00
55490;BME280;44029;52.956;4.772;2023-12-20T10:25:37;101334.31;;;12.93;100.00
55490;BME280;44029;52.956;4.772;2023-12-20T10:28:13;101329.53;;;13.72;100.00
55490;BME280;44029;52.956;4.772;2023-12-20T10:30:40;101325.72;;;13.29;100.00
55490;BME280;44029;52.956;4.772;2023-12-20T10:33:06;101316.59;;;13.72;100.00
55490;BME280;44029;52.956;4.772;2023-12-20T10:35:33;101318.41;;;13.62;100.00
55490;BME280;44029;52.956;4.772;2023-12-20T10:38:03;101323.81;;;14.06;100.00
55490;BME280;44029;52.956;4.772;2023-12-20T10:40:29;101307.31;;;14.11;100.00
55490;BME280;44029;52.956;4.772;2023-12-20T10:42:55;101299.22;;;14.31;100.00
55490;BME280;44029;52.956;4.772;2023-12-20T10:45:22;101288.81;;;14.06;100.00
55490;BME280;44029;52.956;4.772;2023-12-20T10:47:49;101273.69;;;14.09;100.00
55490;BME280;44029;52.956;4.772;2023-12-20T10:50:15;101275.84;;;13.42;100.00
55490;BME280;44029;52.956;4.772;2023-12-20T10:52:42;101272.03;;;14.45;100.00
55490;BME280;44029;52.956;4.772;2023-12-20T10:55:08;101266.53;;;13.76;100.00
55490;BME280;44029;52.956;4.772;2023-12-20T10:57:34;101264.84;;;13.75;100.00
55490;BME280;44029;52.956;4.772;2023-12-20T11:00:02;101260.19;;;14.07;100.00
55490;BME280;44029;52.956;4.772;2023-12-20T11:02:38;101262.19;;;14.17;100.00
55490;BME280;44029;52.956;4.772;2023-12-20T11:05:22;101266.53;;;14.50;100.00
55490;BME280;44029;52.956;4.772;2023-12-20T11:08:01;101277.06;;;13.84;100.00
55490;BME280;44029;52.956;4.772;2023-12-20T11:10:41;101268.50;;;14.13;100.00
55490;BME280;44029;52.956;4.772;2023-12-20T11:13:22;101265.00;;;13.90;100.00
55490;BME280;44029;52.956;4.772;2023-12-20T11:15:49;101263.03;;;13.85;100.00
55490;BME280;44029;52.956;4.772;2023-12-20T11:18:15;101256.50;;;13.64;100.00
55490;BME280;44029;52.956;4.772;2023-12-20T11:20:41;101249.47;;;13.79;100.00
55490;BME280;44029;52.956;4.772;2023-12-20T11:23:10;101236.97;;;13.98;100.00
55490;BME280;44029;52.956;4.772;2023-12-20T11:25:54;101230.22;;;14.16;100.00
55490;BME280;44029;52.956;4.772;2023-12-20T11:28:24;101236.16;;;14.03;100.00
55490;BME280;44029;52.956;4.772;2023-12-20T11:30:53;101241.00;;;14.23;100.00
55490;BME280;44029;52.956;4.772;2023-12-20T11:33:37;101239.22;;;14.49;100.00
55490;BME280;44029;52.956;4.772;2023-12-20T11:36:03;101236.78;;;14.53;100.00
55490;BME280;44029;52.956;4.772;2023-12-20T11:38:37;101236.22;;;14.50;100.00
55490;BME280;44029;52.956;4.772;2023-12-20T11:41:05;101230.28;;;14.26;100.00
55490;BME280;44029;52.956;4.772;2023-12-20T11:43:37;101217.63;;;14.78;100.00
55490;BME280;44029;52.956;4.772;2023-12-20T11:46:03;101217.78;;;15.14;100.00
55490;BME280;44029;52.956;4.772;2023-12-20T11:48:30;101215.75;;;14.36;100.00
55490;BME280;44029;52.956;4.772;2023-12-20T11:50:56;101228.34;;;13.57;100.00
55490;BME280;44029;52.956;4.772;2023-12-20T11:53:21;101231.25;;;13.72;100.00
55490;BME280;44029;52.956;4.772;2023-12-20T11:55:50;101232.84;;;13.96;100.00
55490;BME280;44029;52.956;4.772;2023-12-20T11:58:15;101216.72;;;14.15;100.00
55490;BME280;44029;52.956;4.772;2023-12-20T12:00:42;101208.69;;;14.56;100.00
55490;BME280;44029;52.956;4.772;2023-12-20T12:03:08;101208.41;;;14.09;100.00
55490;BME280;44029;52.956;4.772;2023-12-20T12:05:33;101215.13;;;13.86;100.00
55490;BME280;44029;52.956;4.772;2023-12-20T12:07:59;101199.66;;;14.65;100.00
55490;BME280;44029;52.956;4.772;2023-12-20T12:10:24;101201.91;;;14.74;100.00
55490;BME280;44029;52.956;4.772;2023-12-20T12:12:49;101196.03;;;15.38;100.00
55490;BME280;44029;52.956;4.772;2023-12-20T12:15:15;101193.91;;;14.82;100.00
55490;BME280;44029;52.956;4.772;2023-12-20T12:17:40;101181.03;;;15.03;100.00
55490;BME280;44029;52.956;4.772;2023-12-20T12:20:06;101192.94;;;15.19;100.00
55490;BME280;44029;52.956;4.772;2023-12-20T12:22:32;101194.81;;;14.88;100.00
55490;BME280;44029;52.956;4.772;2023-12-20T12:25:08;101188.50;;;15.13;100.00
55490;BME280;44029;52.956;4.772;2023-12-20T12:27:34;101187.09;;;14.90;100.00
55490;BME280;44029;52.956;4.772;2023-12-20T12:30:01;101184.25;;;14.69;100.00
55490;BME280;44029;52.956;4.772;2023-12-20T12:32:32;101181.34;;;14.49;100.00
55490;BME280;44029;52.956;4.772;2023-12-20T12:34:57;101177.91;;;14.74;100.00